Terminal Aerodrome Forecast
Issued by NWS

Home | Current Version | Previous Version | Text Only | Print | Product List | Glossary On
Versions: 1 2 3 4 5 6 7 8 9 10 11 12 13 14 15 16 17 18 19 20 21 22 23 24 25 26 27 28 29 30 31 32 33 34 35 36
000
FTUS43 KDMX 280536
TAFMCW
TAF
KMCW 280536Z 2806/2906 16010KT P6SM -SHSN BKN035
      TEMPO 2806/2808 4SM -SN OVC030
     FM281000 16012KT P6SM BKN025
     FM281800 17013KT P6SM BKN035 BKN060
     FM282200 14007KT P6SM OVC025
     FM290400 15005KT 3SM BR BKN006=

USA.gov is the U.S. government's official web portal to all federal, state and local government web resources and services.